createdAt,value
2022-07-25T00:00:52.381Z,26.89
2022-07-25T00:01:57.009Z,26.89
2022-07-25T00:03:04.464Z,26.89
2022-07-25T00:04:13.433Z,26.89
2022-07-25T00:05:21.186Z,26.89
2022-07-25T00:06:25.572Z,26.89
2022-07-25T00:07:29.906Z,26.89
2022-07-25T00:08:34.277Z,26.88
2022-07-25T00:09:39.154Z,26.89
2022-07-25T00:10:43.539Z,26.88
2022-07-25T00:11:47.964Z,26.88
2022-07-25T00:12:52.359Z,26.88
2022-07-25T00:13:56.707Z,26.88
2022-07-25T00:15:01.042Z,26.88
2022-07-25T00:16:05.493Z,26.88
2022-07-25T00:17:10.097Z,26.89
2022-07-25T00:18:14.515Z,26.88
2022-07-25T00:19:18.937Z,26.88
2022-07-25T00:20:23.296Z,26.89
2022-07-25T00:21:27.660Z,26.89
2022-07-25T00:22:32.063Z,26.89
2022-07-25T00:23:36.466Z,26.88
2022-07-25T00:24:40.812Z,26.88
2022-07-25T00:25:45.797Z,26.89
2022-07-25T00:26:50.196Z,26.89
2022-07-25T00:27:54.561Z,26.89
2022-07-25T00:28:58.934Z,26.88
2022-07-25T00:30:03.331Z,26.88
2022-07-25T00:31:07.802Z,26.88
2022-07-25T00:32:12.437Z,26.87
2022-07-25T00:33:16.816Z,26.88
2022-07-25T00:34:21.312Z,26.87
2022-07-25T00:35:25.642Z,26.88
2022-07-25T00:36:30.042Z,26.88
2022-07-25T00:37:34.418Z,26.88
2022-07-25T00:38:38.790Z,26.88
2022-07-25T00:39:43.155Z,26.88
2022-07-25T00:40:53.501Z,26.88
2022-07-25T00:41:59.829Z,26.88
2022-07-25T00:43:04.238Z,26.88
2022-07-25T00:44:09.051Z,26.88
2022-07-25T00:45:13.716Z,26.88
2022-07-25T00:46:18.190Z,26.88
2022-07-25T00:47:26.232Z,26.88
2022-07-25T00:48:30.765Z,26.88
2022-07-25T00:49:35.358Z,26.87
2022-07-25T00:50:39.719Z,26.87
2022-07-25T00:51:44.136Z,26.87
2022-07-25T00:52:48.546Z,26.87
2022-07-25T00:53:52.931Z,26.87
2022-07-25T00:54:57.304Z,26.87
2022-07-25T00:56:01.679Z,26.87
2022-07-25T00:57:06.076Z,26.86
2022-07-25T00:58:10.473Z,26.87
2022-07-25T00:59:15.068Z,26.86
2022-07-25T01:00:19.444Z,26.86
2022-07-25T01:01:23.946Z,26.86
2022-07-25T01:02:28.646Z,26.86
2022-07-25T01:03:33.290Z,26.86
2022-07-25T01:04:37.662Z,26.86
2022-07-25T01:05:41.997Z,26.86
2022-07-25T01:06:46.417Z,26.86
2022-07-25T01:07:50.800Z,26.85
2022-07-25T01:08:55.167Z,26.85
2022-07-25T01:09:59.784Z,26.85
2022-07-25T01:11:04.139Z,26.86
2022-07-25T01:12:09.361Z,26.86
2022-07-25T01:13:14.682Z,26.86
2022-07-25T01:14:19.097Z,26.86
2022-07-25T01:15:23.529Z,26.86
2022-07-25T01:16:27.951Z,26.86
2022-07-25T01:17:32.589Z,26.86
2022-07-25T01:18:36.928Z,26.86
2022-07-25T01:19:41.280Z,26.85
2022-07-25T01:20:45.634Z,26.85
2022-07-25T01:21:49.980Z,26.85
2022-07-25T01:22:54.338Z,26.85
2022-07-25T01:23:58.682Z,26.85
2022-07-25T01:25:03.090Z,26.85
2022-07-25T01:26:07.486Z,26.84
2022-07-25T01:27:17.153Z,26.85
2022-07-25T01:28:21.771Z,26.84
2022-07-25T01:29:26.214Z,26.85
2022-07-25T01:30:30.568Z,26.85
2022-07-25T01:31:35.059Z,26.85
2022-07-25T01:32:39.635Z,26.84
2022-07-25T01:33:44.015Z,26.85
2022-07-25T01:34:48.435Z,26.84
2022-07-25T01:35:52.801Z,26.84
2022-07-25T01:36:57.208Z,26.84
2022-07-25T01:38:01.599Z,26.84
2022-07-25T01:39:05.967Z,26.85
2022-07-25T01:40:10.350Z,26.84
2022-07-25T01:41:21.544Z,26.83
2022-07-25T01:42:27.116Z,26.83
2022-07-25T01:43:31.470Z,26.83
2022-07-25T01:44:35.814Z,26.83
2022-07-25T01:45:40.219Z,26.83
2022-07-25T01:46:44.677Z,26.83
2022-07-25T01:47:49.336Z,26.83
2022-07-25T01:48:53.784Z,26.83
2022-07-25T01:49:58.467Z,26.83
2022-07-25T01:51:02.870Z,26.84
2022-07-25T01:52:07.383Z,26.83
2022-07-25T01:53:11.788Z,26.83
2022-07-25T01:54:16.203Z,26.83
2022-07-25T01:55:20.557Z,26.83
2022-07-25T01:56:27.170Z,26.83
2022-07-25T01:57:36.212Z,26.83
2022-07-25T01:58:42.484Z,26.83
2022-07-25T01:59:46.921Z,26.82
2022-07-25T02:00:51.284Z,26.82
2022-07-25T02:01:55.733Z,26.83
2022-07-25T02:03:00.331Z,26.82
2022-07-25T02:04:05.145Z,26.82
2022-07-25T02:05:10.873Z,26.82
2022-07-25T02:06:15.564Z,26.82
2022-07-25T02:07:19.909Z,26.81
2022-07-25T02:08:24.591Z,26.82
2022-07-25T02:09:29.213Z,26.82
2022-07-25T02:10:33.617Z,26.82
2022-07-25T02:11:39.607Z,26.81
2022-07-25T02:12:43.966Z,26.81
2022-07-25T02:13:48.293Z,26.8
2022-07-25T02:14:52.712Z,26.8
2022-07-25T02:15:57.081Z,26.8
2022-07-25T02:17:01.540Z,26.79
2022-07-25T02:18:06.107Z,26.78
2022-07-25T02:19:10.470Z,26.78
2022-07-25T02:20:14.858Z,26.77
2022-07-25T02:21:19.213Z,26.77
2022-07-25T02:22:23.580Z,26.78
2022-07-25T02:23:28.114Z,26.78
2022-07-25T02:24:32.512Z,26.77
2022-07-25T02:25:36.888Z,26.77
2022-07-25T02:26:41.283Z,26.77
2022-07-25T02:27:45.665Z,26.77
2022-07-25T02:28:50.045Z,26.76
2022-07-25T02:29:54.430Z,26.77
2022-07-25T02:30:58.813Z,26.77
2022-07-25T02:32:03.480Z,26.77
2022-07-25T02:33:07.879Z,26.76
2022-07-25T02:34:12.235Z,26.76
2022-07-25T02:35:16.587Z,26.77
2022-07-25T02:36:21.043Z,26.76
2022-07-25T02:37:26.014Z,26.76
2022-07-25T02:38:30.426Z,26.76
2022-07-25T02:39:34.830Z,26.76
2022-07-25T02:40:39.190Z,26.75
2022-07-25T02:41:43.588Z,26.74
2022-07-25T02:42:47.965Z,26.74
2022-07-25T02:43:52.331Z,26.72
2022-07-25T02:44:56.671Z,26.72
2022-07-25T02:46:01.113Z,26.71
2022-07-25T02:47:05.772Z,26.71
2022-07-25T02:48:12.379Z,26.72
2022-07-25T02:49:16.917Z,26.72
2022-07-25T02:50:21.513Z,26.72
2022-07-25T02:51:25.855Z,26.72
2022-07-25T02:52:30.210Z,26.72
2022-07-25T02:53:55.828Z,26.72
2022-07-25T02:55:07.501Z,26.72
2022-07-25T02:56:14.129Z,26.72
2022-07-25T02:57:23.499Z,26.72
2022-07-25T02:58:27.914Z,26.71
2022-07-25T02:59:32.506Z,26.72
2022-07-25T03:00:36.942Z,26.71
2022-07-25T03:01:41.459Z,26.71
2022-07-25T03:02:46.087Z,26.71
2022-07-25T03:03:50.733Z,26.71
2022-07-25T03:04:55.401Z,26.7
2022-07-25T03:05:59.799Z,26.71
2022-07-25T03:07:04.206Z,26.71
2022-07-25T03:08:08.590Z,26.71
2022-07-25T03:09:12.949Z,26.72
2022-07-25T03:10:17.284Z,26.71
2022-07-25T03:11:21.677Z,26.71
2022-07-25T03:12:26.057Z,26.7
2022-07-25T03:13:30.472Z,26.71
2022-07-25T03:14:34.879Z,26.7
2022-07-25T03:15:39.293Z,26.7
2022-07-25T03:16:43.747Z,26.69
2022-07-25T03:17:48.305Z,26.7
2022-07-25T03:18:52.641Z,26.71
2022-07-25T03:19:56.997Z,26.7
2022-07-25T03:21:01.353Z,26.7
2022-07-25T03:22:05.754Z,26.69
2022-07-25T03:23:10.156Z,26.69
2022-07-25T03:24:14.569Z,26.7
2022-07-25T03:25:21.643Z,26.7
2022-07-25T03:26:26.270Z,26.69
2022-07-25T03:27:30.661Z,26.69
2022-07-25T03:28:35.010Z,26.69
2022-07-25T03:29:39.386Z,26.69
2022-07-25T03:30:43.809Z,26.69
2022-07-25T03:31:48.267Z,26.69
2022-07-25T03:32:52.959Z,26.7
2022-07-25T03:33:57.340Z,26.7
2022-07-25T03:35:01.757Z,26.71
2022-07-25T03:36:06.099Z,26.72
2022-07-25T03:37:10.469Z,26.71
2022-07-25T03:38:14.848Z,26.71
2022-07-25T03:39:19.218Z,26.71
2022-07-25T03:40:23.599Z,26.71
2022-07-25T03:41:28.072Z,26.71
2022-07-25T03:42:35.286Z,26.72
2022-07-25T03:43:39.972Z,26.72
2022-07-25T03:44:44.340Z,26.72
2022-07-25T03:45:48.759Z,26.71
2022-07-25T03:46:53.497Z,26.71
2022-07-25T03:47:57.858Z,26.71
2022-07-25T03:49:02.346Z,26.72
2022-07-25T03:50:06.968Z,26.71
2022-07-25T03:51:11.380Z,26.71
2022-07-25T03:52:15.780Z,26.72
2022-07-25T03:53:20.285Z,26.72
2022-07-25T03:54:24.684Z,26.72
2022-07-25T03:55:29.170Z,26.72
2022-07-25T03:56:33.571Z,26.73
2022-07-25T03:57:45.881Z,26.73
2022-07-25T03:58:50.236Z,26.73
2022-07-25T03:59:54.574Z,26.74
2022-07-25T04:00:59.001Z,26.74
2022-07-25T04:02:04.166Z,26.75
2022-07-25T04:03:08.740Z,26.75
2022-07-25T04:04:13.113Z,26.75
2022-07-25T04:05:17.482Z,26.75
2022-07-25T04:06:21.858Z,26.76
2022-07-25T04:07:26.258Z,26.76
2022-07-25T04:08:30.627Z,26.77
2022-07-25T04:09:35.028Z,26.78
2022-07-25T04:10:39.380Z,26.79
2022-07-25T04:11:44.037Z,26.8
2022-07-25T04:12:48.429Z,26.8
2022-07-25T04:13:52.814Z,26.81
2022-07-25T04:14:57.197Z,26.81
2022-07-25T04:16:01.566Z,26.81
2022-07-25T04:17:15.334Z,26.81
2022-07-25T04:18:22.333Z,26.82
2022-07-25T04:19:36.031Z,26.82
2022-07-25T04:20:40.895Z,26.82
2022-07-25T04:21:45.242Z,26.82
2022-07-25T04:22:49.618Z,26.82
2022-07-25T04:23:54.024Z,26.82
2022-07-25T04:24:58.406Z,26.82
2022-07-25T04:26:02.815Z,26.82
2022-07-25T04:27:07.225Z,26.81
2022-07-25T04:28:11.633Z,26.81
2022-07-25T04:29:15.996Z,26.81
2022-07-25T04:30:24.209Z,26.81
2022-07-25T04:31:29.506Z,26.82
2022-07-25T04:32:34.400Z,26.81
2022-07-25T04:33:38.850Z,26.82
2022-07-25T04:34:43.306Z,26.81
2022-07-25T04:35:47.646Z,26.81
2022-07-25T04:36:52.036Z,26.81
2022-07-25T04:37:56.439Z,26.81
2022-07-25T04:39:00.824Z,26.81
2022-07-25T04:40:06.204Z,26.82
2022-07-25T04:41:10.570Z,26.81
2022-07-25T04:42:15.014Z,26.81
2022-07-25T04:43:19.387Z,26.82
2022-07-25T04:44:23.740Z,26.82
2022-07-25T04:45:28.183Z,26.82
2022-07-25T04:46:32.670Z,26.82
2022-07-25T04:47:37.095Z,26.82
2022-07-25T04:48:41.506Z,26.82
2022-07-25T04:49:51.674Z,26.81
2022-07-25T04:50:56.054Z,26.82
2022-07-25T04:52:00.439Z,26.81
2022-07-25T04:53:04.884Z,26.81
2022-07-25T04:54:09.477Z,26.81
2022-07-25T04:55:14.204Z,26.81
2022-07-25T04:56:18.578Z,26.81
2022-07-25T04:57:22.929Z,26.81
2022-07-25T04:58:27.344Z,26.81
2022-07-25T04:59:31.749Z,26.81
2022-07-25T05:00:36.132Z,26.81
2022-07-25T05:01:40.662Z,26.81
2022-07-25T05:02:45.353Z,26.81
2022-07-25T05:03:50.937Z,26.81
2022-07-25T05:04:55.333Z,26.81
2022-07-25T05:06:00.587Z,26.81
2022-07-25T05:07:04.975Z,26.81
2022-07-25T05:08:09.341Z,26.81
2022-07-25T05:09:13.792Z,26.81
2022-07-25T05:10:18.189Z,26.81
2022-07-25T05:11:22.587Z,26.81
2022-07-25T05:12:26.972Z,26.82
2022-07-25T05:13:31.358Z,26.81
2022-07-25T05:14:35.749Z,26.81
2022-07-25T05:15:40.121Z,26.8
2022-07-25T05:16:44.602Z,26.81
2022-07-25T05:17:49.106Z,26.8
2022-07-25T05:18:53.463Z,26.8
2022-07-25T05:19:57.891Z,26.79
2022-07-25T05:21:02.289Z,26.81
2022-07-25T05:22:06.701Z,26.8
2022-07-25T05:23:12.082Z,26.8
2022-07-25T05:24:16.449Z,26.8
2022-07-25T05:25:20.969Z,26.8
2022-07-25T05:26:25.352Z,26.8
2022-07-25T05:27:29.716Z,26.79
2022-07-25T05:28:34.106Z,26.79
2022-07-25T05:29:38.494Z,26.79
2022-07-25T05:30:42.940Z,26.79
2022-07-25T05:31:47.347Z,26.79
2022-07-25T05:32:51.968Z,26.79
2022-07-25T05:33:56.345Z,26.79
2022-07-25T05:35:01.326Z,26.79
2022-07-25T05:36:05.693Z,26.79
2022-07-25T05:37:10.056Z,26.79
2022-07-25T05:38:14.409Z,26.8
2022-07-25T05:39:18.796Z,26.8
2022-07-25T05:40:23.178Z,26.79
2022-07-25T05:41:27.587Z,26.79
2022-07-25T05:42:31.944Z,26.8
2022-07-25T05:43:36.338Z,26.8
2022-07-25T05:44:40.727Z,26.79
2022-07-25T05:45:46.181Z,26.79
2022-07-25T05:46:50.640Z,26.79
2022-07-25T05:47:55.207Z,26.79
2022-07-25T05:48:59.637Z,26.8
2022-07-25T05:50:04.274Z,26.8
2022-07-25T05:51:08.624Z,26.79
2022-07-25T05:52:13.429Z,26.79
2022-07-25T05:53:17.859Z,26.79
2022-07-25T05:54:22.216Z,26.79
2022-07-25T05:55:29.895Z,26.79
2022-07-25T05:56:34.267Z,26.79
2022-07-25T05:57:38.698Z,26.79
2022-07-25T05:58:43.087Z,26.79
2022-07-25T05:59:47.479Z,26.79
2022-07-25T06:00:51.851Z,26.78
2022-07-25T06:01:56.254Z,26.78
2022-07-25T06:03:01.181Z,26.79
2022-07-25T06:04:06.375Z,26.79
2022-07-25T06:05:12.049Z,26.79
2022-07-25T06:06:16.432Z,26.79
2022-07-25T06:07:20.808Z,26.79
2022-07-25T06:08:25.162Z,26.78
2022-07-25T06:09:30.083Z,26.79
2022-07-25T06:10:34.561Z,26.78
2022-07-25T06:11:48.687Z,26.78
2022-07-25T06:13:04.981Z,26.78
2022-07-25T06:14:12.630Z,26.78
2022-07-25T06:15:19.251Z,26.78
2022-07-25T06:16:31.170Z,26.78
2022-07-25T06:17:35.896Z,26.78
2022-07-25T06:18:40.255Z,26.78
2022-07-25T06:19:44.613Z,26.78
2022-07-25T06:20:48.982Z,26.78
2022-07-25T06:21:53.376Z,26.78
2022-07-25T06:22:57.820Z,26.78
2022-07-25T06:24:02.245Z,26.78
2022-07-25T06:25:07.270Z,26.78
2022-07-25T06:26:11.634Z,26.78
2022-07-25T06:27:20.054Z,26.78
2022-07-25T06:28:31.829Z,26.79
2022-07-25T06:29:36.239Z,26.78
2022-07-25T06:30:40.648Z,26.78
2022-07-25T06:31:46.318Z,26.79
2022-07-25T06:32:51.920Z,26.78
2022-07-25T06:33:56.284Z,26.78
2022-07-25T06:35:00.647Z,26.79
2022-07-25T06:36:05.065Z,26.79
2022-07-25T06:37:09.546Z,26.79
2022-07-25T06:38:13.982Z,26.79
2022-07-25T06:39:18.379Z,26.78
2022-07-25T06:40:22.816Z,26.78
2022-07-25T06:41:27.307Z,26.78
2022-07-25T06:42:31.704Z,26.78
2022-07-25T06:43:36.091Z,26.78
2022-07-25T06:44:40.469Z,26.79
2022-07-25T06:45:44.974Z,26.78
2022-07-25T06:46:50.165Z,26.78
2022-07-25T06:47:55.495Z,26.78
2022-07-25T06:48:59.961Z,26.78
2022-07-25T06:50:04.605Z,26.78
2022-07-25T06:51:14.598Z,26.78
2022-07-25T06:52:18.981Z,26.78
2022-07-25T06:53:23.399Z,26.78
2022-07-25T06:54:27.799Z,26.78
2022-07-25T06:55:32.177Z,26.78
2022-07-25T06:56:36.780Z,26.79
2022-07-25T06:57:41.159Z,26.79
2022-07-25T06:58:45.560Z,26.78
2022-07-25T06:59:49.968Z,26.79
2022-07-25T07:00:54.476Z,26.79
2022-07-25T07:01:59.103Z,26.79
2022-07-25T07:03:03.564Z,26.79
2022-07-25T07:04:08.633Z,26.78
2022-07-25T07:05:13.853Z,26.79
2022-07-25T07:06:19.603Z,26.79
2022-07-25T07:07:23.991Z,26.79
2022-07-25T07:08:28.350Z,26.79
2022-07-25T07:09:32.724Z,26.8
2022-07-25T07:10:37.133Z,26.79
2022-07-25T07:11:41.553Z,26.79
2022-07-25T07:12:45.996Z,26.79
2022-07-25T07:13:50.358Z,26.79
2022-07-25T07:14:54.775Z,26.79
2022-07-25T07:15:59.241Z,26.8
2022-07-25T07:17:03.854Z,26.8
2022-07-25T07:18:08.256Z,26.79
2022-07-25T07:19:12.619Z,26.79
2022-07-25T07:20:17.078Z,26.79
2022-07-25T07:21:21.722Z,26.79
2022-07-25T07:22:26.669Z,26.8
2022-07-25T07:23:31.378Z,26.79
2022-07-25T07:24:43.014Z,26.79
2022-07-25T07:25:51.673Z,26.8
2022-07-25T07:26:56.126Z,26.79
2022-07-25T07:28:00.501Z,26.81
2022-07-25T07:29:05.144Z,26.8
2022-07-25T07:30:10.588Z,26.81
2022-07-25T07:31:17.335Z,26.81
2022-07-25T07:32:22.900Z,26.8
2022-07-25T07:33:27.534Z,26.8
2022-07-25T07:34:32.125Z,26.8
2022-07-25T07:35:36.492Z,26.8
2022-07-25T07:36:40.905Z,26.8
2022-07-25T07:37:45.310Z,26.8
2022-07-25T07:38:49.728Z,26.8
2022-07-25T07:39:54.130Z,26.8
2022-07-25T07:40:58.556Z,26.8
2022-07-25T07:42:02.938Z,26.8
2022-07-25T07:43:07.348Z,26.8
2022-07-25T07:44:11.772Z,26.81
2022-07-25T07:45:16.169Z,26.81
2022-07-25T07:46:20.542Z,26.81
2022-07-25T07:47:25.086Z,26.81
2022-07-25T07:48:29.623Z,26.81
2022-07-25T07:49:36.785Z,26.81
2022-07-25T07:50:41.710Z,26.81
2022-07-25T07:51:46.165Z,26.82
2022-07-25T07:52:50.535Z,26.81
2022-07-25T07:53:54.964Z,26.81
2022-07-25T07:54:59.622Z,26.81
2022-07-25T07:56:04.083Z,26.81
2022-07-25T07:57:08.472Z,26.81
2022-07-25T07:58:12.881Z,26.81
2022-07-25T07:59:17.288Z,26.81
2022-07-25T08:00:21.699Z,26.81
2022-07-25T08:01:26.070Z,26.81
2022-07-25T08:02:30.722Z,26.81
2022-07-25T08:03:35.300Z,26.82
2022-07-25T08:04:39.666Z,26.82
2022-07-25T08:05:44.116Z,26.82
2022-07-25T08:06:48.496Z,26.82
2022-07-25T08:07:52.892Z,26.81
2022-07-25T08:08:57.803Z,26.81
2022-07-25T08:10:02.153Z,26.81
2022-07-25T08:11:06.566Z,26.8
2022-07-25T08:12:10.966Z,26.81
2022-07-25T08:13:15.341Z,26.81
2022-07-25T08:14:19.739Z,26.8
2022-07-25T08:15:24.113Z,26.81
2022-07-25T08:16:28.596Z,26.8
2022-07-25T08:17:33.225Z,26.8
2022-07-25T08:18:39.240Z,26.8
2022-07-25T08:19:43.637Z,26.8
2022-07-25T08:20:47.995Z,26.81
2022-07-25T08:21:52.372Z,26.8
2022-07-25T08:22:56.876Z,26.8
2022-07-25T08:24:01.301Z,26.8
2022-07-25T08:25:09.284Z,26.8
2022-07-25T08:26:13.690Z,26.8
2022-07-25T08:27:18.106Z,26.8
2022-07-25T08:28:22.477Z,26.81
2022-07-25T08:29:28.298Z,26.8
2022-07-25T08:30:32.771Z,26.8
2022-07-25T08:31:37.211Z,26.81
2022-07-25T08:32:41.924Z,26.81
2022-07-25T08:33:46.319Z,26.8
2022-07-25T08:34:50.727Z,26.8
2022-07-25T08:35:55.307Z,26.8
2022-07-25T08:36:59.768Z,26.8
2022-07-25T08:38:04.251Z,26.8
2022-07-25T08:39:08.675Z,26.8
2022-07-25T08:40:13.082Z,26.81
2022-07-25T08:41:17.504Z,26.8
2022-07-25T08:42:29.098Z,26.81
2022-07-25T08:43:33.479Z,26.81
2022-07-25T08:44:40.873Z,26.81
2022-07-25T08:45:45.259Z,26.81
2022-07-25T08:46:49.676Z,26.81
2022-07-25T08:47:54.321Z,26.8
2022-07-25T08:48:58.800Z,26.8
2022-07-25T08:50:04.507Z,26.81
2022-07-25T08:51:09.070Z,26.8
2022-07-25T08:52:13.476Z,26.81
2022-07-25T08:53:34.498Z,26.8
2022-07-25T08:54:39.610Z,26.8
2022-07-25T08:55:44.035Z,26.81
2022-07-25T08:56:48.463Z,26.81
2022-07-25T08:57:52.820Z,26.8
2022-07-25T08:58:57.229Z,26.81
2022-07-25T09:00:01.748Z,26.81
2022-07-25T09:01:06.217Z,26.8
2022-07-25T09:02:10.656Z,26.8
2022-07-25T09:03:15.299Z,26.8
2022-07-25T09:04:21.463Z,26.8
2022-07-25T09:05:25.845Z,26.8
2022-07-25T09:06:30.228Z,26.8
2022-07-25T09:07:34.594Z,26.8
2022-07-25T09:08:38.997Z,26.79
2022-07-25T09:09:43.372Z,26.79
2022-07-25T09:10:47.770Z,26.79
2022-07-25T09:11:52.132Z,26.79
2022-07-25T09:12:56.514Z,26.79
2022-07-25T09:14:00.940Z,26.79
2022-07-25T09:15:07.472Z,26.79
2022-07-25T09:16:14.216Z,26.78
2022-07-25T09:17:21.773Z,26.79
2022-07-25T09:18:29.730Z,26.79
2022-07-25T09:19:34.147Z,26.79
2022-07-25T09:20:38.542Z,26.78
2022-07-25T09:21:42.912Z,26.78
2022-07-25T09:22:52.374Z,26.78
2022-07-25T09:23:56.760Z,26.78
2022-07-25T09:25:01.154Z,26.78
2022-07-25T09:26:05.715Z,26.78
2022-07-25T09:27:12.402Z,26.77
2022-07-25T09:28:17.057Z,26.78
2022-07-25T09:29:21.420Z,26.78
2022-07-25T09:30:25.814Z,26.78
2022-07-25T09:31:30.229Z,26.78
2022-07-25T09:32:35.079Z,26.78
2022-07-25T09:33:39.471Z,26.77
2022-07-25T09:34:43.852Z,26.77
2022-07-25T09:35:48.278Z,26.77
2022-07-25T09:36:52.653Z,26.77
2022-07-25T09:37:57.000Z,26.78
2022-07-25T09:39:01.406Z,26.78
2022-07-25T09:40:06.638Z,26.77
2022-07-25T09:41:11.050Z,26.78
2022-07-25T09:42:15.735Z,26.77
2022-07-25T09:43:20.074Z,26.78
2022-07-25T09:44:24.482Z,26.77
2022-07-25T09:45:31.509Z,26.77
2022-07-25T09:46:36.084Z,26.76
2022-07-25T09:47:40.782Z,26.76
2022-07-25T09:48:45.273Z,26.76
2022-07-25T09:49:49.890Z,26.76
2022-07-25T09:50:54.304Z,26.76
2022-07-25T09:51:58.677Z,26.76
2022-07-25T09:53:03.051Z,26.76
2022-07-25T09:54:07.863Z,26.76
2022-07-25T09:55:13.019Z,26.77
2022-07-25T09:56:17.425Z,26.77
2022-07-25T09:57:21.822Z,26.77
2022-07-25T09:58:26.195Z,26.78
2022-07-25T09:59:30.593Z,26.77
2022-07-25T10:00:34.972Z,26.78
2022-07-25T10:01:39.556Z,26.77
2022-07-25T10:02:44.361Z,26.77
2022-07-25T10:03:48.893Z,26.78
2022-07-25T10:04:53.291Z,26.77
2022-07-25T10:05:57.726Z,26.77
2022-07-25T10:07:02.114Z,26.77
2022-07-25T10:08:06.572Z,26.77
2022-07-25T10:09:11.024Z,26.76
2022-07-25T10:10:15.432Z,26.76
2022-07-25T10:11:19.811Z,26.76
2022-07-25T10:12:24.166Z,26.76
2022-07-25T10:13:28.578Z,26.76
2022-07-25T10:14:32.992Z,26.77
2022-07-25T10:15:37.340Z,26.77
2022-07-25T10:16:41.743Z,26.78
2022-07-25T10:17:46.316Z,26.77
2022-07-25T10:18:50.723Z,26.77
2022-07-25T10:19:58.650Z,26.76
2022-07-25T10:21:13.553Z,26.76
2022-07-25T10:22:54.111Z,26.76
2022-07-25T10:24:01.244Z,26.76
2022-07-25T10:25:05.912Z,26.76
2022-07-25T10:26:10.247Z,26.76
2022-07-25T10:27:14.646Z,26.76
2022-07-25T10:28:22.691Z,26.76
2022-07-25T10:29:27.067Z,26.76
2022-07-25T10:30:31.490Z,26.76
2022-07-25T10:31:36.068Z,26.77
2022-07-25T10:32:40.516Z,26.77
2022-07-25T10:33:44.915Z,26.76
2022-07-25T10:34:49.308Z,26.78
2022-07-25T10:35:53.705Z,26.78
2022-07-25T10:36:58.166Z,26.78
2022-07-25T10:38:02.532Z,26.78
2022-07-25T10:39:06.941Z,26.77
2022-07-25T10:40:11.455Z,26.78
2022-07-25T10:41:15.860Z,26.78
2022-07-25T10:42:20.276Z,26.78
2022-07-25T10:43:24.684Z,26.78
2022-07-25T10:44:29.363Z,26.78
2022-07-25T10:45:38.028Z,26.77
2022-07-25T10:46:43.041Z,26.78
2022-07-25T10:47:47.483Z,26.77
2022-07-25T10:48:52.162Z,26.77
2022-07-25T10:50:16.564Z,26.77
2022-07-25T10:51:57.724Z,26.76
2022-07-25T10:53:02.113Z,26.76
2022-07-25T10:54:06.529Z,26.75
2022-07-25T10:55:10.899Z,26.76
2022-07-25T10:56:17.502Z,26.75
2022-07-25T10:57:21.906Z,26.75
2022-07-25T10:58:30.652Z,26.75
2022-07-25T10:59:35.021Z,26.76
2022-07-25T11:00:39.401Z,26.76
2022-07-25T11:01:43.879Z,26.76
2022-07-25T11:02:48.614Z,26.76
2022-07-25T11:03:53.225Z,26.76
2022-07-25T11:04:57.610Z,26.76
2022-07-25T11:06:02.023Z,26.76
2022-07-25T11:07:06.421Z,26.76
2022-07-25T11:08:21.546Z,26.75
2022-07-25T11:09:27.808Z,26.76
2022-07-25T11:10:32.255Z,26.77
2022-07-25T11:11:36.655Z,26.78
2022-07-25T11:12:41.059Z,26.77
2022-07-25T11:13:45.457Z,26.76
2022-07-25T11:14:49.828Z,26.76
2022-07-25T11:15:54.209Z,26.77
2022-07-25T11:16:58.688Z,26.78
2022-07-25T11:18:03.255Z,26.77
2022-07-25T11:19:07.880Z,26.78
2022-07-25T11:20:12.872Z,26.78
2022-07-25T11:21:17.233Z,26.77
2022-07-25T11:22:21.613Z,26.77
2022-07-25T11:23:26.036Z,26.77
2022-07-25T11:24:30.388Z,26.77
2022-07-25T11:25:34.762Z,26.78
2022-07-25T11:26:39.344Z,26.77
2022-07-25T11:27:43.755Z,26.77
2022-07-25T11:28:48.137Z,26.77
2022-07-25T11:29:52.536Z,26.78
2022-07-25T11:30:56.909Z,26.78
2022-07-25T11:32:01.282Z,26.78
2022-07-25T11:33:05.928Z,26.77
2022-07-25T11:34:11.310Z,26.78
2022-07-25T11:35:15.776Z,26.78
2022-07-25T11:36:20.147Z,26.78
2022-07-25T11:37:25.219Z,26.77
2022-07-25T11:38:29.685Z,26.78
2022-07-25T11:39:34.057Z,26.78
2022-07-25T11:40:38.426Z,26.78
2022-07-25T11:41:42.800Z,26.78
2022-07-25T11:42:47.221Z,26.78
2022-07-25T11:43:52.098Z,26.78
2022-07-25T11:44:56.474Z,26.79
2022-07-25T11:46:00.983Z,26.78
2022-07-25T11:47:05.623Z,26.79
2022-07-25T11:48:10.066Z,26.78
2022-07-25T11:49:14.500Z,26.78
2022-07-25T11:50:19.099Z,26.79
2022-07-25T11:51:23.519Z,26.8
2022-07-25T11:52:27.943Z,26.8
2022-07-25T11:53:32.424Z,26.8
2022-07-25T11:54:36.800Z,26.79
2022-07-25T11:55:41.150Z,26.8
2022-07-25T11:56:45.731Z,26.79
2022-07-25T11:57:50.116Z,26.8
2022-07-25T11:58:54.517Z,26.79
2022-07-25T11:59:58.908Z,26.8
2022-07-25T12:01:03.319Z,26.79
2022-07-25T12:02:07.795Z,26.8
2022-07-25T12:03:17.094Z,26.79
2022-07-25T12:04:24.655Z,26.79
2022-07-25T12:05:29.032Z,26.79
2022-07-25T12:06:33.465Z,26.79
2022-07-25T12:07:37.990Z,26.79
2022-07-25T12:08:42.367Z,26.8
2022-07-25T12:09:46.741Z,26.79
2022-07-25T12:10:51.118Z,26.8
2022-07-25T12:11:55.487Z,26.79
2022-07-25T12:12:59.889Z,26.79
2022-07-25T12:14:04.277Z,26.79
2022-07-25T12:15:08.671Z,26.8
2022-07-25T12:16:13.121Z,26.8
2022-07-25T12:17:17.770Z,26.79
2022-07-25T12:18:22.214Z,26.79
2022-07-25T12:19:26.584Z,26.79
2022-07-25T12:20:30.957Z,26.79
2022-07-25T12:21:35.364Z,26.79
2022-07-25T12:22:39.740Z,26.8
2022-07-25T12:23:45.587Z,26.79
2022-07-25T12:24:49.976Z,26.8
2022-07-25T12:25:54.447Z,26.8
2022-07-25T12:26:58.832Z,26.8
2022-07-25T12:28:03.196Z,26.8
2022-07-25T12:29:07.908Z,26.8
2022-07-25T12:30:13.441Z,26.81
2022-07-25T12:31:17.891Z,26.8
2022-07-25T12:32:22.443Z,26.8
2022-07-25T12:33:26.783Z,26.8
2022-07-25T12:34:31.158Z,26.8
2022-07-25T12:35:35.535Z,26.8
2022-07-25T12:36:39.946Z,26.8
2022-07-25T12:37:44.317Z,26.8
2022-07-25T12:38:49.240Z,26.81
2022-07-25T12:39:53.643Z,26.81
2022-07-25T12:40:58.017Z,26.8
2022-07-25T12:42:02.649Z,26.81
2022-07-25T12:43:07.116Z,26.81
2022-07-25T12:44:11.492Z,26.81
2022-07-25T12:45:15.836Z,26.81
2022-07-25T12:46:20.277Z,26.81
2022-07-25T12:47:24.967Z,26.81
2022-07-25T12:48:29.362Z,26.81
2022-07-25T12:49:33.919Z,26.81
2022-07-25T12:50:38.315Z,26.81
2022-07-25T12:51:42.674Z,26.82
2022-07-25T12:52:47.044Z,26.82
2022-07-25T12:53:51.450Z,26.82
2022-07-25T12:54:55.830Z,26.82
2022-07-25T12:56:00.212Z,26.81
2022-07-25T12:57:04.638Z,26.81
2022-07-25T12:58:09.027Z,26.82
2022-07-25T12:59:13.420Z,26.81
2022-07-25T13:00:17.772Z,26.82
2022-07-25T13:01:22.184Z,26.82
2022-07-25T13:02:26.851Z,26.82
2022-07-25T13:03:31.595Z,26.81
2022-07-25T13:04:36.006Z,26.81
2022-07-25T13:05:40.419Z,26.81
2022-07-25T13:06:44.802Z,26.8
2022-07-25T13:07:49.175Z,26.81
2022-07-25T13:08:53.565Z,26.8
2022-07-25T13:09:57.938Z,26.8
2022-07-25T13:11:02.409Z,26.8
2022-07-25T13:12:07.069Z,26.8
2022-07-25T13:13:13.741Z,26.81
2022-07-25T13:14:18.145Z,26.81
2022-07-25T13:15:22.584Z,26.81
2022-07-25T13:16:27.051Z,26.82
2022-07-25T13:17:31.584Z,26.81
2022-07-25T13:18:36.003Z,26.82
2022-07-25T13:19:40.379Z,26.81
2022-07-25T13:20:44.771Z,26.82
2022-07-25T13:21:49.152Z,26.82
2022-07-25T13:22:53.534Z,26.82
2022-07-25T13:23:58.906Z,26.82
2022-07-25T13:25:03.284Z,26.82
2022-07-25T13:26:07.683Z,26.82
2022-07-25T13:27:12.169Z,26.82
2022-07-25T13:28:16.614Z,26.83
2022-07-25T13:29:23.409Z,26.83
2022-07-25T13:30:29.552Z,26.83
2022-07-25T13:31:34.337Z,26.82
2022-07-25T13:32:39.038Z,26.83
2022-07-25T13:33:43.370Z,26.83
2022-07-25T13:34:47.743Z,26.83
2022-07-25T13:35:52.126Z,26.84
2022-07-25T13:36:56.512Z,26.84
2022-07-25T13:38:00.891Z,26.84
2022-07-25T13:39:05.635Z,26.83
2022-07-25T13:40:11.388Z,26.84
2022-07-25T13:41:15.783Z,26.84
2022-07-25T13:42:23.315Z,26.84
2022-07-25T13:43:27.666Z,26.84
2022-07-25T13:44:32.072Z,26.84
2022-07-25T13:45:36.521Z,26.83
2022-07-25T13:46:41.100Z,26.84
2022-07-25T13:48:00.892Z,26.84
2022-07-25T13:49:34.063Z,26.85
2022-07-25T13:50:38.470Z,26.85
2022-07-25T13:51:42.880Z,26.86
2022-07-25T13:52:47.276Z,26.86
2022-07-25T13:53:51.634Z,26.86
2022-07-25T13:54:56.012Z,26.86
2022-07-25T13:56:00.386Z,26.86
2022-07-25T13:57:04.780Z,26.87
2022-07-25T13:58:09.223Z,26.87
2022-07-25T13:59:18.920Z,26.87
2022-07-25T14:00:25.647Z,26.87
2022-07-25T14:01:30.219Z,26.88
2022-07-25T14:02:34.908Z,26.88